createdAt,value
2023-05-09T00:01:23.374Z,98701.00
2023-05-09T00:03:54.751Z,98707.00
2023-05-09T00:06:24.155Z,98711.00
2023-05-09T00:08:53.417Z,98715.00
2023-05-09T00:11:23.278Z,98712.00
2023-05-09T00:13:53.107Z,98717.00
2023-05-09T00:16:24.912Z,98718.00
2023-05-09T00:18:54.217Z,98719.00
2023-05-09T00:21:30.038Z,98714.00
2023-05-09T00:24:00.074Z,98720.00
2023-05-09T00:26:29.948Z,98716.00
2023-05-09T00:28:59.405Z,98724.00
2023-05-09T00:31:29.592Z,98722.00
2023-05-09T00:33:58.887Z,98717.00
2023-05-09T00:36:28.360Z,98708.00
2023-05-09T00:38:58.148Z,98721.00
2023-05-09T00:41:27.371Z,98720.00
2023-05-09T00:43:57.449Z,98725.00
2023-05-09T00:46:27.008Z,98723.00
2023-05-09T00:48:58.146Z,98722.00
2023-05-09T00:54:13.099Z,98728.00
2023-05-09T00:56:42.368Z,98728.00
2023-05-09T00:59:14.232Z,98733.00
2023-05-09T01:01:48.257Z,98738.00
2023-05-09T01:04:18.435Z,98734.00
2023-05-09T01:08:02.255Z,98729.00
2023-05-09T01:10:59.610Z,98735.00
2023-05-09T01:14:07.204Z,98732.00
2023-05-09T01:17:25.050Z,98733.00
2023-05-09T01:20:15.236Z,98729.00
2023-05-09T01:23:19.666Z,98734.00
2023-05-09T01:26:04.122Z,98737.00
2023-05-09T01:29:02.840Z,98733.00
2023-05-09T01:31:39.676Z,98737.00
2023-05-09T01:34:12.572Z,98730.00
2023-05-09T01:36:44.584Z,98733.00
2023-05-09T01:39:16.433Z,98738.00
2023-05-09T01:41:47.108Z,98732.00
2023-05-09T01:44:18.514Z,98731.00
2023-05-09T01:46:49.202Z,98725.00
2023-05-09T01:49:24.370Z,98721.00
2023-05-09T01:51:58.521Z,98718.00
2023-05-09T01:54:30.307Z,98713.00
2023-05-09T01:57:02.057Z,98709.00
2023-05-09T01:59:34.766Z,98714.00
2023-05-09T02:02:07.368Z,98714.00
2023-05-09T02:04:38.348Z,98709.00
2023-05-09T02:07:09.233Z,98715.00
2023-05-09T02:09:40.266Z,98712.00
2023-05-09T02:12:10.997Z,98715.00
2023-05-09T02:14:40.212Z,98709.00
2023-05-09T02:17:11.760Z,98715.00
2023-05-09T02:19:40.897Z,98715.00
2023-05-09T02:22:10.545Z,98710.00
2023-05-09T02:24:41.555Z,98707.00
2023-05-09T02:27:13.423Z,98714.00
2023-05-09T02:29:57.609Z,98718.00
2023-05-09T02:32:33.350Z,98704.00
2023-05-09T02:35:12.120Z,98702.00
2023-05-09T02:37:49.397Z,98706.00
2023-05-09T02:43:10.920Z,98715.00
2023-05-09T02:45:41.173Z,98713.00
2023-05-09T02:48:10.732Z,98707.00
2023-05-09T02:50:40.537Z,98704.00
2023-05-09T02:53:10.107Z,98698.00
2023-05-09T02:55:39.489Z,98691.00
2023-05-09T02:58:14.051Z,98696.00
2023-05-09T03:00:45.047Z,98687.00
2023-05-09T03:03:14.703Z,98684.00
2023-05-09T03:05:44.381Z,98681.00
2023-05-09T03:08:13.683Z,98677.00
2023-05-09T03:10:42.974Z,98658.00
2023-05-09T03:13:15.199Z,98659.00
2023-05-09T03:15:44.502Z,98652.00
2023-05-09T03:18:14.108Z,98652.00
2023-05-09T03:20:43.400Z,98643.00
2023-05-09T03:23:15.431Z,98651.00
2023-05-09T03:25:44.680Z,98656.00
2023-05-09T03:28:13.977Z,98645.00
2023-05-09T03:30:44.167Z,98643.00
2023-05-09T03:33:14.741Z,98646.00
2023-05-09T03:35:44.143Z,98639.00
2023-05-09T03:38:13.475Z,98648.00
2023-05-09T03:40:42.832Z,98642.00
2023-05-09T03:43:12.083Z,98640.00
2023-05-09T03:45:41.453Z,98631.00
2023-05-09T03:48:12.255Z,98623.00
2023-05-09T03:50:41.938Z,98619.00
2023-05-09T03:53:20.132Z,98621.00
2023-05-09T03:58:32.345Z,98606.00
2023-05-09T04:01:01.711Z,98606.00
2023-05-09T04:03:31.317Z,98596.00
2023-05-09T04:06:00.754Z,98599.00
2023-05-09T04:08:30.237Z,98600.00
2023-05-09T04:10:59.620Z,98590.00
2023-05-09T04:13:30.860Z,98589.00
2023-05-09T04:16:03.916Z,98585.00
2023-05-09T04:18:34.510Z,98584.00
2023-05-09T04:21:04.310Z,98588.00
2023-05-09T04:23:33.611Z,98582.00
2023-05-09T04:26:03.080Z,98579.00
2023-05-09T04:28:35.537Z,98580.00
2023-05-09T04:31:05.130Z,98582.00
2023-05-09T04:33:35.681Z,98577.00
2023-05-09T04:36:05.109Z,98584.00
2023-05-09T04:38:34.334Z,98577.00
2023-05-09T04:41:03.633Z,98572.00
2023-05-09T04:43:33.537Z,98571.00
2023-05-09T04:46:06.021Z,98579.00
2023-05-09T04:48:36.670Z,98567.00
2023-05-09T04:51:05.986Z,98569.00
2023-05-09T04:53:35.402Z,98573.00
2023-05-09T04:56:04.659Z,98579.00
2023-05-09T04:58:35.593Z,98572.00
2023-05-09T05:01:04.962Z,98565.00
2023-05-09T05:03:34.664Z,98570.00
2023-05-09T05:06:03.889Z,98568.00
2023-05-09T05:08:33.043Z,98569.00
2023-05-09T05:11:02.471Z,98562.00
2023-05-09T05:13:31.826Z,98561.00
2023-05-09T05:16:01.068Z,98564.00
2023-05-09T05:18:30.355Z,98561.00
2023-05-09T05:20:59.501Z,98554.00
2023-05-09T05:23:28.734Z,98540.00
2023-05-09T05:25:57.972Z,98537.00
2023-05-09T05:28:27.193Z,98536.00
2023-05-09T05:30:56.478Z,98535.00
2023-05-09T05:33:26.034Z,98527.00
2023-05-09T05:35:55.209Z,98520.00
2023-05-09T05:38:24.460Z,98513.00
2023-05-09T05:40:53.799Z,98519.00
2023-05-09T05:43:22.957Z,98516.00
2023-05-09T05:45:52.138Z,98503.00
2023-05-09T05:48:21.499Z,98501.00
2023-05-09T05:50:50.706Z,98493.00
2023-05-09T05:53:19.856Z,98483.00
2023-05-09T05:55:50.230Z,98482.00
2023-05-09T05:58:19.484Z,98480.00
2023-05-09T06:00:48.694Z,98475.00
2023-05-09T06:03:18.488Z,98474.00
2023-05-09T06:05:49.483Z,98469.00
2023-05-09T06:08:18.724Z,98469.00
2023-05-09T06:10:47.868Z,98466.00
2023-05-09T06:13:17.131Z,98471.00
2023-05-09T06:15:46.566Z,98464.00
2023-05-09T06:18:15.833Z,98459.00
2023-05-09T06:20:45.051Z,98451.00
2023-05-09T06:23:14.272Z,98458.00
2023-05-09T06:25:43.477Z,98455.00
2023-05-09T06:28:12.641Z,98446.00
2023-05-09T06:30:41.992Z,98447.00
2023-05-09T06:33:11.437Z,98440.00
2023-05-09T06:35:40.674Z,98441.00
2023-05-09T06:38:09.957Z,98432.00
2023-05-09T06:40:39.540Z,98426.00
2023-05-09T06:43:08.750Z,98424.00
2023-05-09T06:45:38.137Z,98418.00
2023-05-09T06:48:07.806Z,98408.00
2023-05-09T06:50:36.989Z,98409.00
2023-05-09T06:53:06.326Z,98398.00
2023-05-09T06:55:35.630Z,98401.00
2023-05-09T06:58:05.803Z,98391.00
2023-05-09T07:00:35.228Z,98389.00
2023-05-09T07:03:04.512Z,98381.00
2023-05-09T07:05:33.756Z,98376.00
2023-05-09T07:08:03.099Z,98373.00
2023-05-09T07:10:32.532Z,98372.00
2023-05-09T07:13:01.729Z,98370.00
2023-05-09T07:15:40.306Z,98364.00
2023-05-09T07:18:11.620Z,98351.00
2023-05-09T07:20:41.205Z,98347.00
2023-05-09T07:23:10.496Z,98349.00
2023-05-09T07:25:39.822Z,98340.00
2023-05-09T07:28:09.084Z,98335.00
2023-05-09T07:30:38.272Z,98329.00
2023-05-09T07:33:08.553Z,98335.00
2023-05-09T07:35:37.835Z,98331.00
2023-05-09T07:38:07.512Z,98330.00
2023-05-09T07:40:38.137Z,98316.00
2023-05-09T07:43:07.345Z,98319.00
2023-05-09T07:45:37.385Z,98316.00
2023-05-09T07:48:07.043Z,98305.00
2023-05-09T07:50:36.360Z,98302.00
2023-05-09T07:53:05.685Z,98298.00
2023-05-09T07:55:34.830Z,98291.00
2023-05-09T07:58:04.026Z,98291.00
2023-05-09T08:00:33.293Z,98288.00
2023-05-09T08:03:02.573Z,98287.00
2023-05-09T08:05:31.945Z,98279.00
2023-05-09T08:08:01.289Z,98261.00
2023-05-09T08:10:32.079Z,98264.00
2023-05-09T08:13:01.621Z,98250.00
2023-05-09T08:15:32.259Z,98257.00
2023-05-09T08:18:01.585Z,98244.00
2023-05-09T08:20:32.870Z,98249.00
2023-05-09T08:23:02.130Z,98251.00
2023-05-09T08:25:31.354Z,98253.00
2023-05-09T08:28:00.792Z,98258.00
2023-05-09T08:30:30.617Z,98260.00
2023-05-09T08:32:59.834Z,98261.00
2023-05-09T08:35:29.094Z,98269.00
2023-05-09T08:37:59.113Z,98257.00
2023-05-09T08:40:28.330Z,98252.00
2023-05-09T08:42:58.383Z,98246.00
2023-05-09T08:45:31.624Z,98232.00
2023-05-09T08:48:03.817Z,98231.00
2023-05-09T08:50:33.739Z,98237.00
2023-05-09T08:53:03.256Z,98233.00
2023-05-09T08:55:34.089Z,98230.00
2023-05-09T08:58:05.154Z,98233.00
2023-05-09T09:00:35.892Z,98225.00
2023-05-09T09:03:07.886Z,98223.00
2023-05-09T09:05:42.743Z,98218.00
2023-05-09T09:08:12.909Z,98220.00
2023-05-09T09:10:47.993Z,98224.00
2023-05-09T09:13:19.230Z,98201.00
2023-05-09T09:15:50.220Z,98213.00
2023-05-09T09:18:30.633Z,98223.00
2023-05-09T09:21:08.687Z,98225.00
2023-05-09T09:23:44.054Z,98223.00
2023-05-09T09:26:16.234Z,98218.00
2023-05-09T09:28:45.593Z,98217.00
2023-05-09T09:31:26.584Z,98210.00
2023-05-09T09:34:02.761Z,98213.00
2023-05-09T09:36:37.678Z,98213.00
2023-05-09T09:39:07.777Z,98209.00
2023-05-09T09:41:41.536Z,98207.00
2023-05-09T09:44:22.537Z,98197.00
2023-05-09T09:46:57.430Z,98195.00
2023-05-09T09:49:28.325Z,98198.00
2023-05-09T09:51:59.842Z,98194.00
2023-05-09T09:54:30.246Z,98204.00
2023-05-09T09:56:59.759Z,98210.00
2023-05-09T09:59:29.303Z,98217.00
2023-05-09T10:02:08.525Z,98222.00
2023-05-09T10:04:44.330Z,98225.00
2023-05-09T10:07:15.101Z,98228.00
2023-05-09T10:09:44.807Z,98226.00
2023-05-09T10:12:16.437Z,98233.00
2023-05-09T10:14:47.052Z,98234.00
2023-05-09T10:17:17.491Z,98223.00
2023-05-09T10:19:48.854Z,98232.00
2023-05-09T10:22:20.773Z,98226.00
2023-05-09T10:25:04.581Z,98224.00
2023-05-09T10:27:38.033Z,98230.00
2023-05-09T10:30:23.589Z,98227.00
2023-05-09T10:33:12.071Z,98232.00
2023-05-09T10:35:48.742Z,98230.00
2023-05-09T10:38:19.469Z,98223.00
2023-05-09T10:40:49.782Z,98224.00
2023-05-09T10:43:19.495Z,98233.00
2023-05-09T10:45:49.622Z,98239.00
2023-05-09T10:48:19.693Z,98244.00
2023-05-09T10:50:50.060Z,98244.00
2023-05-09T10:53:19.350Z,98249.00
2023-05-09T10:56:03.992Z,98254.00
2023-05-09T10:58:38.336Z,98249.00
2023-05-09T11:01:08.005Z,98257.00
2023-05-09T11:03:59.319Z,98259.00
2023-05-09T11:06:45.287Z,98265.00
2023-05-09T11:09:43.798Z,98263.00
2023-05-09T11:12:16.530Z,98264.00
2023-05-09T11:14:52.688Z,98264.00
2023-05-09T11:17:25.675Z,98271.00
2023-05-09T11:19:54.987Z,98275.00
2023-05-09T11:22:33.675Z,98278.00
2023-05-09T11:25:13.803Z,98283.00
2023-05-09T11:27:44.768Z,98287.00
2023-05-09T11:30:20.852Z,98297.00
2023-05-09T11:32:56.472Z,98301.00
2023-05-09T11:35:29.957Z,98304.00
2023-05-09T11:38:08.814Z,98308.00
2023-05-09T11:40:39.495Z,98313.00
2023-05-09T11:43:10.490Z,98313.00
2023-05-09T11:45:42.422Z,98315.00
2023-05-09T11:48:12.005Z,98320.00
2023-05-09T11:50:42.739Z,98337.00
2023-05-09T11:53:14.234Z,98336.00
2023-05-09T11:55:43.815Z,98338.00
2023-05-09T11:58:14.914Z,98347.00
2023-05-09T12:00:48.573Z,98357.00
2023-05-09T12:03:18.493Z,98365.00
2023-05-09T12:05:50.674Z,98371.00
2023-05-09T12:08:23.892Z,98374.00
2023-05-09T12:10:54.787Z,98378.00
2023-05-09T12:13:24.195Z,98381.00
2023-05-09T12:16:01.573Z,98382.00
2023-05-09T12:18:30.949Z,98385.00
2023-05-09T12:21:01.265Z,98396.00
2023-05-09T12:23:35.906Z,98408.00
2023-05-09T12:26:07.722Z,98417.00
2023-05-09T12:28:40.166Z,98429.00
2023-05-09T12:31:10.247Z,98443.00
2023-05-09T12:33:41.416Z,98448.00
2023-05-09T12:36:20.632Z,98468.00
2023-05-09T12:38:58.170Z,98477.00
2023-05-09T12:41:36.959Z,98488.00
2023-05-09T12:44:10.684Z,98493.00
2023-05-09T12:46:40.184Z,98517.00
2023-05-09T12:49:23.637Z,98506.00
2023-05-09T12:51:54.773Z,98516.00
2023-05-09T12:54:30.826Z,98525.00
2023-05-09T12:57:03.817Z,98538.00
2023-05-09T12:59:34.908Z,98526.00
2023-05-09T13:02:04.596Z,98529.00
2023-05-09T13:04:34.123Z,98535.00
2023-05-09T13:07:10.861Z,98538.00
2023-05-09T13:10:02.012Z,98541.00
2023-05-09T13:12:31.420Z,98548.00
2023-05-09T13:15:01.769Z,98556.00
2023-05-09T13:17:32.148Z,98557.00
2023-05-09T13:20:02.230Z,98564.00
2023-05-09T13:22:34.142Z,98583.00
2023-05-09T13:25:03.565Z,98583.00
2023-05-09T13:27:33.913Z,98586.00
2023-05-09T13:30:03.424Z,98573.00
2023-05-09T13:32:32.839Z,98596.00
2023-05-09T13:35:02.156Z,98602.00
2023-05-09T13:37:32.189Z,98626.00
2023-05-09T13:40:01.487Z,98637.00
2023-05-09T13:42:30.942Z,98666.00
2023-05-09T13:45:00.443Z,98688.00
2023-05-09T13:47:32.802Z,98715.00
2023-05-09T13:50:02.294Z,98724.00
2023-05-09T13:52:31.931Z,98709.00
2023-05-09T13:55:02.268Z,98704.00
2023-05-09T13:57:31.580Z,98697.00
2023-05-09T14:05:27.934Z,98707.00
2023-05-09T14:10:40.663Z,98721.00
2023-05-09T14:13:10.343Z,98714.00
2023-05-09T14:15:41.370Z,98715.00
2023-05-09T14:18:11.842Z,98718.00
2023-05-09T14:20:43.339Z,98722.00
2023-05-09T14:23:26.393Z,98727.00
2023-05-09T14:26:02.291Z,98732.00
2023-05-09T14:31:20.139Z,98734.00
2023-05-09T14:33:49.641Z,98735.00
2023-05-09T14:36:20.356Z,98756.00
2023-05-09T14:38:50.958Z,98775.00
2023-05-09T14:41:22.638Z,98782.00
2023-05-09T14:43:57.626Z,98801.00
2023-05-09T14:46:33.842Z,98800.00
2023-05-09T14:49:05.422Z,98815.00
2023-05-09T14:51:35.225Z,98809.00
2023-05-09T14:54:05.951Z,98807.00
2023-05-09T14:56:41.243Z,98808.00
2023-05-09T14:59:20.566Z,98810.00
2023-05-09T15:01:57.333Z,98804.00
2023-05-09T15:07:23.904Z,98784.00
2023-05-09T15:12:42.249Z,98788.00
2023-05-09T15:18:14.830Z,98772.00
2023-05-09T15:20:44.839Z,98756.00
2023-05-09T15:23:14.918Z,98749.00
2023-05-09T15:25:45.633Z,98754.00
2023-05-09T15:28:15.114Z,98761.00
2023-05-09T15:30:47.808Z,98766.00
2023-05-09T15:33:17.129Z,98772.00
2023-05-09T15:35:52.276Z,98764.00
2023-05-09T15:38:34.090Z,98732.00
2023-05-09T15:41:06.395Z,98697.00
2023-05-09T15:43:40.005Z,98672.00
2023-05-09T15:46:14.850Z,98655.00
2023-05-09T15:48:47.118Z,98638.00
2023-05-09T15:51:16.565Z,98634.00
2023-05-09T15:53:46.000Z,98619.00
2023-05-09T15:56:15.619Z,98622.00
2023-05-09T15:59:06.746Z,98622.00
2023-05-09T16:01:37.219Z,98619.00
2023-05-09T16:04:08.937Z,98611.00
2023-05-09T16:06:38.966Z,98608.00
2023-05-09T16:09:08.548Z,98596.00
2023-05-09T16:11:38.242Z,98601.00
2023-05-09T16:14:10.379Z,98598.00
2023-05-09T16:16:47.076Z,98595.00
2023-05-09T16:19:16.392Z,98596.00
2023-05-09T16:21:48.598Z,98595.00
2023-05-09T16:24:17.936Z,98588.00
2023-05-09T16:26:47.116Z,98597.00
2023-05-09T16:29:16.313Z,98605.00
2023-05-09T16:31:45.910Z,98600.00
2023-05-09T16:34:15.092Z,98611.00
2023-05-09T16:36:45.683Z,98621.00
2023-05-09T16:39:15.132Z,98641.00
2023-05-09T16:41:44.501Z,98681.00
2023-05-09T16:44:13.986Z,98691.00
2023-05-09T16:46:43.509Z,98709.00
2023-05-09T16:49:16.475Z,98733.00
2023-05-09T16:51:46.709Z,98728.00
2023-05-09T16:54:16.172Z,98723.00
2023-05-09T16:56:45.478Z,98723.00
2023-05-09T16:59:14.846Z,98738.00
2023-05-09T17:01:44.340Z,98728.00
2023-05-09T17:04:13.739Z,98722.00
2023-05-09T17:06:43.102Z,98712.00
2023-05-09T17:09:12.587Z,98707.00
2023-05-09T17:11:41.991Z,98710.00
2023-05-09T17:14:11.428Z,98694.00
2023-05-09T17:16:40.742Z,98691.00
2023-05-09T17:19:10.058Z,98703.00
2023-05-09T17:21:42.528Z,98708.00
2023-05-09T17:24:12.129Z,98686.00
2023-05-09T17:26:42.064Z,98677.00
2023-05-09T17:29:11.436Z,98674.00
2023-05-09T17:31:40.908Z,98680.00
2023-05-09T17:34:10.198Z,98672.00
2023-05-09T17:36:39.496Z,98667.00
2023-05-09T17:39:08.841Z,98652.00
2023-05-09T17:41:38.100Z,98642.00
2023-05-09T17:44:07.594Z,98649.00
2023-05-09T17:46:37.013Z,98634.00
2023-05-09T17:49:08.713Z,98630.00
2023-05-09T17:51:38.253Z,98631.00
2023-05-09T17:54:07.792Z,98623.00
2023-05-09T17:56:37.432Z,98603.00
2023-05-09T17:59:07.564Z,98604.00
2023-05-09T18:01:37.009Z,98598.00
2023-05-09T18:04:07.413Z,98592.00
2023-05-09T18:06:38.139Z,98592.00
2023-05-09T18:09:08.038Z,98591.00
2023-05-09T18:11:37.560Z,98584.00
2023-05-09T18:14:07.396Z,98583.00
2023-05-09T18:16:37.273Z,98573.00
2023-05-09T18:19:06.925Z,98575.00
2023-05-09T18:21:37.492Z,98562.00
2023-05-09T18:24:10.080Z,98564.00
2023-05-09T18:26:39.359Z,98557.00
2023-05-09T18:29:08.909Z,98551.00
2023-05-09T18:31:40.469Z,98546.00
2023-05-09T18:34:10.319Z,98535.00
2023-05-09T18:36:39.702Z,98530.00
2023-05-09T18:39:10.182Z,98515.00
2023-05-09T18:41:39.538Z,98515.00
2023-05-09T18:44:09.575Z,98513.00
2023-05-09T18:46:39.068Z,98510.00
2023-05-09T18:49:08.860Z,98503.00
2023-05-09T18:51:38.135Z,98505.00
2023-05-09T18:54:13.443Z,98500.00
2023-05-09T18:56:49.798Z,98504.00
2023-05-09T18:59:19.171Z,98504.00
2023-05-09T19:01:48.467Z,98493.00
2023-05-09T19:04:21.121Z,98496.00
2023-05-09T19:06:51.699Z,98491.00
2023-05-09T19:09:20.991Z,98494.00
2023-05-09T19:11:50.260Z,98489.00
2023-05-09T19:14:19.476Z,98484.00
2023-05-09T19:16:48.798Z,98488.00
2023-05-09T19:19:18.067Z,98489.00
2023-05-09T19:21:49.124Z,98485.00
2023-05-09T19:24:24.364Z,98479.00
2023-05-09T19:26:53.632Z,98472.00
2023-05-09T19:29:22.783Z,98469.00
2023-05-09T19:31:52.198Z,98468.00
2023-05-09T19:34:22.096Z,98467.00
2023-05-09T19:36:51.720Z,98466.00
2023-05-09T19:39:21.100Z,98476.00
2023-05-09T19:41:51.191Z,98471.00
2023-05-09T19:44:20.522Z,98474.00
2023-05-09T19:46:50.483Z,98476.00
2023-05-09T19:49:19.915Z,98469.00
2023-05-09T19:51:49.284Z,98477.00
2023-05-09T19:54:18.747Z,98476.00
2023-05-09T19:56:48.298Z,98482.00
2023-05-09T19:59:19.605Z,98474.00
2023-05-09T20:01:49.103Z,98482.00
2023-05-09T20:04:22.645Z,98477.00
2023-05-09T20:06:52.740Z,98487.00
2023-05-09T20:09:22.292Z,98479.00
2023-05-09T20:11:51.650Z,98484.00
2023-05-09T20:14:20.942Z,98481.00
2023-05-09T20:16:50.392Z,98487.00
2023-05-09T20:19:30.674Z,98484.00
2023-05-09T20:22:00.607Z,98483.00
2023-05-09T20:24:32.379Z,98491.00
2023-05-09T20:27:03.492Z,98491.00
2023-05-09T20:29:32.772Z,98483.00
2023-05-09T20:32:03.144Z,98487.00
2023-05-09T20:34:32.569Z,98479.00
2023-05-09T20:37:02.509Z,98477.00
2023-05-09T20:39:31.895Z,98473.00
2023-05-09T20:42:03.230Z,98478.00
2023-05-09T20:44:32.597Z,98471.00
2023-05-09T20:47:18.458Z,98479.00
2023-05-09T20:49:47.809Z,98477.00
2023-05-09T20:52:17.142Z,98478.00
2023-05-09T20:54:49.087Z,98469.00
2023-05-09T20:57:21.105Z,98470.00
2023-05-09T20:59:50.424Z,98469.00
2023-05-09T21:02:19.761Z,98471.00
2023-05-09T21:04:49.039Z,98465.00
2023-05-09T21:07:21.021Z,98458.00
2023-05-09T21:09:54.701Z,98460.00
2023-05-09T21:15:17.598Z,98465.00
2023-05-09T21:17:48.413Z,98470.00
2023-05-09T21:20:18.074Z,98471.00
2023-05-09T21:22:47.631Z,98483.00
2023-05-09T21:25:18.494Z,98484.00
2023-05-09T21:27:47.822Z,98474.00
2023-05-09T21:30:17.503Z,98478.00
2023-05-09T21:32:46.989Z,98481.00
2023-05-09T21:35:16.615Z,98482.00
2023-05-09T21:37:47.048Z,98494.00
2023-05-09T21:40:16.728Z,98490.00
2023-05-09T21:42:46.290Z,98505.00
2023-05-09T21:45:15.927Z,98510.00
2023-05-09T21:47:45.464Z,98506.00
2023-05-09T21:50:15.080Z,98511.00
2023-05-09T21:52:44.581Z,98509.00
2023-05-09T21:55:14.201Z,98509.00
2023-05-09T21:57:43.651Z,98517.00
2023-05-09T22:00:16.279Z,98517.00
2023-05-09T22:02:46.317Z,98524.00
2023-05-09T22:05:15.883Z,98517.00
2023-05-09T22:07:45.397Z,98524.00
2023-05-09T22:10:14.934Z,98529.00
2023-05-09T22:12:44.535Z,98543.00
2023-05-09T22:15:14.128Z,98547.00
2023-05-09T22:17:43.512Z,98556.00
2023-05-09T22:20:13.901Z,98556.00
2023-05-09T22:22:43.506Z,98561.00
2023-05-09T22:25:13.008Z,98563.00
2023-05-09T22:27:42.240Z,98564.00
2023-05-09T22:30:13.559Z,98565.00
2023-05-09T22:32:43.455Z,98575.00
2023-05-09T22:35:12.911Z,98575.00
2023-05-09T22:37:45.351Z,98573.00
2023-05-09T22:40:15.784Z,98573.00
2023-05-09T22:42:45.337Z,98576.00
2023-05-09T22:45:14.890Z,98586.00
2023-05-09T22:47:44.388Z,98587.00
2023-05-09T22:50:14.727Z,98591.00
2023-05-09T22:52:44.389Z,98595.00
2023-05-09T22:55:13.837Z,98598.00
2023-05-09T22:57:43.488Z,98602.00
2023-05-09T23:00:13.964Z,98594.00
2023-05-09T23:02:43.592Z,98595.00
2023-05-09T23:05:13.058Z,98603.00
2023-05-09T23:07:42.617Z,98607.00
2023-05-09T23:10:12.464Z,98598.00
2023-05-09T23:12:41.797Z,98599.00
2023-05-09T23:15:12.371Z,98586.00
2023-05-09T23:17:42.513Z,98586.00
2023-05-09T23:20:12.709Z,98586.00
2023-05-09T23:22:42.046Z,98589.00
2023-05-09T23:25:11.789Z,98596.00
2023-05-09T23:27:41.752Z,98601.00
2023-05-09T23:30:12.442Z,98602.00
2023-05-09T23:32:43.172Z,98606.00
2023-05-09T23:35:12.872Z,98604.00
2023-05-09T23:37:43.866Z,98604.00
2023-05-09T23:40:14.242Z,98615.00
2023-05-09T23:42:43.839Z,98619.00
2023-05-09T23:45:13.755Z,98618.00
2023-05-09T23:47:43.050Z,98622.00
2023-05-09T23:50:13.454Z,98620.00
2023-05-09T23:52:44.496Z,98626.00
2023-05-09T23:55:14.136Z,98633.00
2023-05-09T23:57:43.502Z,98635.00
